Havana, KS (67347)

7:21 PM CDT on July 24, 2016 (GMT -0500)
Independence Municipal | | Change Station
Active Advisory: Excessive Heat Warning

Elev 823 ft 37.16 °N, 95.78 °W | Updated 6 minutes ago

Clear
Clear
93 °F
Feels Like 98 °F
N
7
Wind Variable Wind from SE

Today
High -- | Low -- °F
--% Chance of Precip.
Yesterday
High -- | Low -- °F
Precip. -- in
Pressure 29.90 in
Visibility 10.0 miles
Clouds Clear
Heat Index 98 °F
Dew Point 68 °F
Humidity 44%
Rainfall 0.00 in
Snow Depth Not available.
6:22 AM 8:37 PM
Waning Gibbous, 71% visible
METAR KIDP 250015Z AUTO 14006KT 10SM CLR 34/20 A2990 RMK AO2
Pressure 29.90 in
Visibility 10.0 miles
Clouds Clear
Heat Index 98 °F
Dew Point 68 °F
Humidity 44%
Rainfall 0.00 in
Snow Depth Not available.
6:22 AM 8:37 PM
Waning Gibbous, 71% visible
METAR KIDP 250015Z AUTO 14006KT 10SM CLR 34/20 A2990 RMK AO2

10-Day Weather Forecast

Almanac

Astronomy

Jul. 24, 2016 Rise Set
Actual Time
Civil Twilight
Nautical Twilight
Astronomical Twilight
Moon
Length of Visible Light
Length of Day
Tomorrow will be .
, % of the Moon is Illuminated

Today's Extremes

State Highs State Lows

Community

WunderPhotos

Upload Photos

1,927,212 photos uploaded!

WunderBlog® & News

Nearby

Air Quality

  Air Quality AQ Index Pollutant
Not available.

Snow Depth

Station Depth Elevation

Earthquake Activity

City Distance Mag. Time & Date
Minimum magnitude displayed is 2.5.

Coastal Water Temperatures

Place Temperature

Stations

Nearby Weather Stations

Station Location Temp. Windchill Dew Point Humidity Wind Precip. Elev Updated Type
                   

Watches & Warnings

Excessive Heat Warning
Issued: 4:30 PM CDT Jul. 24, 2016 – National Weather Service

... Excessive heat warning remains in effect until 8 PM CDT this
evening...

* heat index values... up to 108.

* Timing... through early this evening.

* Impacts... the heat and humidity will make heat related illness
such as heat stress... heat cramps... and possibly heat stroke
more likely.

Precautionary/preparedness actions...

An excessive heat warning means that a prolonged period of
dangerously hot temperatures will occur. The combination of hot
temperatures and high humidity will create a dangerous situation
where heat illnesses are likely. Drink plenty of fluids and stay
in an air conditioned room. Stay out of the sun and check up on
relatives and neighbors. Temperatures within vehicles can become
lethal in a few minutes. Never leave children or pets in
vehicles. Remember to beat the heat... check the backseat.